Time;durP1;ratioP1;P1;durP2;ratioP2;P2;SDS_P1;SDS_P2;PMS_P1;PMS_P2;Temp;Humidity;BMP_temperature;BMP_pressure;BME280_temperature;BME280_humidity;BME280_pressure;Samples;Min_cycle;Max_cycle;Signal;HPM_P1;HPM_P2
2023/07/26 00:00:38;;;;;;;6.07;2.53;;;;;;;11.94;100.00;101019.84;5012563;28;20043;-93
2023/07/26 00:03:24;;;;;;;3.50;2.42;;;;;;;11.97;100.00;101016.19;5005771;28;20693;-94
2023/07/26 00:06:10;;;;;;;4.53;2.50;;;;;;;11.98;100.00;101019.69;4994763;28;20050;-92
2023/07/26 00:08:56;;;;;;;2.85;2.20;;;;;;;12.00;100.00;101017.81;4976885;28;20199;-90
2023/07/26 00:11:41;;;;;;;3.10;1.88;;;;;;;12.02;100.00;101019.47;5006987;28;21696;-89
2023/07/26 00:14:28;;;;;;;3.03;2.22;;;;;;;12.02;100.00;101016.81;5001883;28;21957;-92
2023/07/26 00:17:14;;;;;;;5.40;2.20;;;;;;;12.04;100.00;101017.63;4990223;28;20127;-93
2023/07/26 00:20:00;;;;;;;5.15;2.50;;;;;;;12.04;100.00;101001.72;5005723;28;20091;-96
2023/07/26 00:22:45;;;;;;;4.53;2.80;;;;;;;12.04;100.00;101009.66;5007386;28;20697;-93
2023/07/26 00:25:31;;;;;;;5.50;2.83;;;;;;;12.04;100.00;101008.81;4993800;28;20510;-92
2023/07/26 00:28:17;;;;;;;3.35;2.78;;;;;;;12.02;100.00;101006.22;5011779;28;20506;-94
2023/07/26 00:31:03;;;;;;;3.70;2.60;;;;;;;12.00;100.00;101008.09;5005014;28;20034;-94
2023/07/26 00:33:48;;;;;;;4.70;2.95;;;;;;;11.98;100.00;101006.44;5004750;28;20405;-93
2023/07/26 00:36:34;;;;;;;3.72;2.85;;;;;;;11.95;100.00;100999.47;5006522;28;20105;-92
2023/07/26 00:39:20;;;;;;;5.00;2.85;;;;;;;11.93;100.00;101006.66;5005813;28;20065;-93
2023/07/26 00:42:06;;;;;;;4.50;3.20;;;;;;;11.92;100.00;101012.88;5005424;28;20045;-92
2023/07/26 00:44:51;;;;;;;3.40;2.70;;;;;;;11.87;100.00;101013.09;5004258;28;20068;-93
2023/07/26 00:47:37;;;;;;;3.10;2.60;;;;;;;11.85;100.00;101012.34;5006791;28;20748;-91
2023/07/26 00:50:23;;;;;;;5.65;3.05;;;;;;;11.80;100.00;101017.88;4987266;28;20056;-92
2023/07/26 00:53:09;;;;;;;4.20;2.50;;;;;;;11.79;100.00;101018.81;4977425;28;20033;-93
2023/07/26 00:55:55;;;;;;;5.40;2.67;;;;;;;11.76;100.00;101016.28;5001121;28;21882;-93
2023/07/26 00:58:41;;;;;;;6.00;2.83;;;;;;;11.75;100.00;101013.69;4995372;28;20034;-91
2023/07/26 01:01:27;;;;;;;3.17;2.13;;;;;;;11.74;100.00;101010.19;4980740;28;20057;-95
2023/07/26 01:04:13;;;;;;;3.38;2.55;;;;;;;11.72;100.00;101014.69;4998487;28;20053;-92
2023/07/26 01:07:11;;;;;;;4.10;2.90;;;;;;;11.71;100.00;101012.13;5000765;28;20058;-91
2023/07/26 01:10:02;;;;;;;3.22;2.33;;;;;;;11.70;100.00;101011.25;5005223;28;20046;-90
2023/07/26 01:12:54;;;;;;;3.15;2.47;;;;;;;11.68;100.00;101015.78;5002764;28;20057;-94
2023/07/26 01:15:41;;;;;;;4.13;2.67;;;;;;;11.66;100.00;101010.56;5006269;28;20084;-94
2023/07/26 01:18:27;;;;;;;3.63;2.58;;;;;;;11.64;100.00;101011.56;4993998;28;20040;-94
2023/07/26 01:21:12;;;;;;;3.40;2.70;;;;;;;11.63;100.00;101016.00;4991976;28;20513;-93
2023/07/26 01:23:58;;;;;;;4.10;2.78;;;;;;;11.62;100.00;101013.44;5009042;28;20437;-93
2023/07/26 01:26:44;;;;;;;4.88;2.78;;;;;;;11.58;100.00;101001.22;5004159;28;20038;-93
2023/07/26 01:29:30;;;;;;;4.95;3.10;;;;;;;11.56;100.00;101006.63;4974540;28;20053;-93
2023/07/26 01:32:16;;;;;;;5.47;3.00;;;;;;;11.54;100.00;100998.75;5007038;28;20404;-95
2023/07/26 01:35:03;;;;;;;5.90;2.25;;;;;;;11.53;100.00;100998.81;4991186;28;20119;-94
2023/07/26 01:37:49;;;;;;;4.80;3.10;;;;;;;11.51;100.00;101001.53;4970956;28;20037;-95
2023/07/26 01:40:35;;;;;;;4.07;2.60;;;;;;;11.50;100.00;101002.47;4984647;28;20046;-95
2023/07/26 01:43:21;;;;;;;3.90;2.70;;;;;;;11.49;100.00;101006.03;4994047;28;20143;-95
2023/07/26 01:46:11;;;;;;;4.65;2.58;;;;;;;11.49;100.00;101006.03;4980667;28;20030;-94
2023/07/26 01:48:56;;;;;;;3.85;3.00;;;;;;;11.49;100.00;100997.25;4990184;28;20648;-94
2023/07/26 01:51:43;;;;;;;4.13;2.60;;;;;;;11.51;100.00;101008.63;5008634;28;20041;-94
2023/07/26 01:54:29;;;;;;;4.45;2.60;;;;;;;11.51;100.00;101003.31;5006618;28;20029;-94
2023/07/26 01:57:15;;;;;;;3.85;2.40;;;;;;;11.52;100.00;101011.22;5008224;28;20465;-95
2023/07/26 02:00:01;;;;;;;6.38;2.70;;;;;;;11.52;100.00;101008.56;5005386;28;20069;-94
2023/07/26 02:02:46;;;;;;;4.70;2.67;;;;;;;11.52;100.00;101007.69;4992726;28;20037;-95
2023/07/26 02:05:32;;;;;;;3.15;2.05;;;;;;;11.54;100.00;101012.00;5006264;28;20050;-94
2023/07/26 02:08:18;;;;;;;3.65;2.42;;;;;;;11.57;100.00;101010.13;4981525;28;20088;-95
2023/07/26 02:11:04;;;;;;;3.92;2.60;;;;;;;11.57;100.00;101004.81;5006700;28;20133;-94
2023/07/26 02:13:50;;;;;;;5.38;3.00;;;;;;;11.58;100.00;101015.38;5011394;28;20030;-95
2023/07/26 02:16:35;;;;;;;4.93;2.75;;;;;;;11.60;100.00;101015.31;5005154;28;20392;-90
2023/07/26 02:19:21;;;;;;;7.70;2.92;;;;;;;11.60;100.00;101015.31;4969813;28;20041;-94
2023/07/26 02:22:07;;;;;;;3.72;2.50;;;;;;;11.57;100.00;101010.13;5002125;28;20041;-91
2023/07/26 02:24:53;;;;;;;5.70;2.67;;;;;;;11.53;100.00;101007.63;5007707;28;20144;-91
2023/07/26 02:27:41;;;;;;;5.07;2.88;;;;;;;11.50;100.00;101020.16;4997934;28;20030;-87
2023/07/26 02:30:27;;;;;;;8.23;2.72;;;;;;;11.46;100.00;101008.84;4985226;28;20081;-91
2023/07/26 02:33:13;;;;;;;6.28;2.47;;;;;;;11.44;100.00;101007.19;4996047;28;20057;-86
2023/07/26 02:35:59;;;;;;;4.57;2.30;;;;;;;11.44;100.00;101005.38;4995389;28;20093;-88
2023/07/26 02:38:45;;;;;;;6.05;2.30;;;;;;;11.44;100.00;101009.84;4978338;28;20069;-88
2023/07/26 02:41:30;;;;;;;3.95;1.88;;;;;;;11.41;100.00;101002.91;4994490;28;20063;-89
2023/07/26 02:44:16;;;;;;;3.97;1.88;;;;;;;11.37;100.00;101009.25;4992415;28;20053;-88
2023/07/26 02:47:02;;;;;;;2.30;1.67;;;;;;;11.37;100.00;101007.47;4980100;28;20594;-90
2023/07/26 02:49:48;;;;;;;3.22;1.50;;;;;;;11.37;100.00;101009.25;4998307;28;20052;-93
2023/07/26 02:52:33;;;;;;;3.95;1.77;;;;;;;11.37;100.00;101004.84;5003574;28;20042;-92
2023/07/26 02:55:19;;;;;;;8.55;1.50;;;;;;;11.37;100.00;101003.97;5006057;28;20436;-91
2023/07/26 02:58:05;;;;;;;3.08;1.83;;;;;;;11.38;100.00;101016.28;4990443;28;20947;-92
2023/07/26 03:00:52;;;;;;;3.25;1.60;;;;;;;11.39;100.00;101013.56;4959643;28;20149;-94
2023/07/26 03:03:38;;;;;;;2.97;1.92;;;;;;;11.39;100.00;101008.25;5005736;28;20044;-93
2023/07/26 03:06:23;;;;;;;4.03;1.67;;;;;;;11.40;100.00;101009.97;4982053;28;20184;-90
2023/07/26 03:09:15;;;;;;;3.20;1.98;;;;;;;11.39;100.00;100997.66;4980696;28;20042;-90
2023/07/26 03:12:01;;;;;;;3.20;1.65;;;;;;;11.38;100.00;101001.25;4992550;28;20050;-89
2023/07/26 03:14:47;;;;;;;4.93;1.80;;;;;;;11.38;100.00;100995.06;4992117;28;20540;-88
2023/07/26 03:17:32;;;;;;;2.88;1.65;;;;;;;11.33;100.00;100990.00;4993302;28;20034;-88
2023/07/26 03:20:18;;;;;;;2.95;1.88;;;;;;;11.34;100.00;100996.16;4990104;28;21062;-89
2023/07/26 03:23:04;;;;;;;3.83;2.03;;;;;;;11.32;100.00;101000.69;4980774;28;20068;-87
2023/07/26 03:25:50;;;;;;;3.92;2.08;;;;;;;11.31;100.00;101012.19;4993263;28;21014;-88
2023/07/26 03:28:35;;;;;;;4.53;2.15;;;;;;;11.29;100.00;101017.59;4977923;28;20111;-90
2023/07/26 03:31:21;;;;;;;6.00;2.10;;;;;;;11.27;100.00;101009.69;4994706;28;20030;-91
2023/07/26 03:34:07;;;;;;;3.28;2.10;;;;;;;11.28;100.00;101010.56;4978161;28;20049;-88
2023/07/26 03:36:53;;;;;;;3.13;2.00;;;;;;;11.24;100.00;101007.16;4993686;28;20033;-89
2023/07/26 03:39:38;;;;;;;2.78;1.63;;;;;;;11.21;100.00;101004.66;4994258;28;21765;-89
2023/07/26 03:42:24;;;;;;;5.07;2.08;;;;;;;11.19;100.00;101006.53;4993702;28;20053;-88
2023/07/26 03:45:10;;;;;;;3.35;1.83;;;;;;;11.17;100.00;101008.38;4988290;28;20038;-90
2023/07/26 03:47:56;;;;;;;3.63;1.80;;;;;;;11.19;100.00;101000.38;4991793;28;20987;-90
2023/07/26 03:50:41;;;;;;;4.03;2.15;;;;;;;11.18;100.00;101003.94;4992159;28;21984;-91
2023/07/26 03:53:27;;;;;;;2.70;1.67;;;;;;;11.18;100.00;101004.81;4993093;28;20037;-89
2023/07/26 03:56:13;;;;;;;3.63;1.73;;;;;;;11.17;100.00;101008.38;4991969;28;20045;-90
2023/07/26 03:58:59;;;;;;;3.08;1.60;;;;;;;11.18;100.00;101003.94;4992383;28;20504;-90
2023/07/26 04:01:44;;;;;;;3.47;1.90;;;;;;;11.18;100.00;101012.78;4990774;28;20037;-91
2023/07/26 04:04:30;;;;;;;3.15;1.88;;;;;;;11.17;100.00;101021.63;4977350;28;20571;-92
2023/07/26 04:07:16;;;;;;;3.80;1.95;;;;;;;11.17;100.00;101021.63;4992361;28;20756;-91
2023/07/26 04:10:02;;;;;;;2.83;1.73;;;;;;;11.18;100.00;101028.69;4993893;28;20648;-91
2023/07/26 04:12:48;;;;;;;3.00;1.80;;;;;;;11.16;100.00;101030.50;4997547;28;20100;-90
2023/07/26 04:15:34;;;;;;;2.83;1.80;;;;;;;11.17;100.00;101029.56;4996358;28;20073;-89
2023/07/26 04:18:23;;;;;;;2.78;1.70;;;;;;;11.23;100.00;101028.47;4995017;28;20190;-90
2023/07/26 04:21:14;;;;;;;2.88;1.52;;;;;;;11.25;100.00;101027.47;4972910;28;21989;-90
2023/07/26 04:24:00;;;;;;;3.65;1.70;;;;;;;11.31;100.00;101030.75;4993344;28;20046;-90
2023/07/26 04:26:45;;;;;;;4.35;2.05;;;;;;;11.34;100.00;101035.91;4995433;28;20076;-91
2023/07/26 04:29:31;;;;;;;3.92;2.00;;;;;;;11.35;100.00;101033.22;4994120;28;20041;-91
2023/07/26 04:32:17;;;;;;;3.50;1.75;;;;;;;11.39;100.00;101036.56;4976753;28;20038;-90
2023/07/26 04:35:03;;;;;;;3.55;2.03;;;;;;;11.39;100.00;101029.47;4996245;28;20211;-91
2023/07/26 04:37:49;;;;;;;3.10;1.75;;;;;;;11.44;100.00;101039.00;4994256;28;20997;-91
2023/07/26 04:40:37;;;;;;;3.53;1.98;;;;;;;11.46;100.00;101038.00;4974066;28;20139;-92
2023/07/26 04:43:22;;;;;;;2.78;1.80;;;;;;;11.47;100.00;101047.69;4985278;28;20037;-92
2023/07/26 04:46:08;;;;;;;2.80;1.88;;;;;;;11.46;100.00;101039.78;5001097;28;20481;-91
2023/07/26 04:48:54;;;;;;;2.28;1.73;;;;;;;11.47;100.00;101039.72;5000967;28;20091;-91
2023/07/26 04:51:40;;;;;;;3.90;2.00;;;;;;;11.47;100.00;101036.22;4982680;28;20038;-93
2023/07/26 04:54:25;;;;;;;2.97;1.63;;;;;;;11.47;100.00;101038.84;4984876;28;20205;-93
2023/07/26 04:57:11;;;;;;;7.60;2.30;;;;;;;11.48;100.00;101044.09;4986353;28;20046;-92
2023/07/26 04:59:57;;;;;;;2.42;1.90;;;;;;;11.48;100.00;101044.09;4998385;28;20045;-91
2023/07/26 05:02:43;;;;;;;2.58;1.60;;;;;;;11.48;100.00;101046.75;4966840;28;20034;-91
2023/07/26 05:05:28;;;;;;;4.03;1.58;;;;;;;11.52;100.00;101047.47;4988294;28;20489;-92
2023/07/26 05:08:14;;;;;;;2.92;1.65;;;;;;;11.52;100.00;101032.44;4981248;28;20080;-91
2023/07/26 05:11:00;;;;;;;2.92;1.77;;;;;;;11.58;100.00;101033.06;4994615;28;20045;-94
2023/07/26 05:13:47;;;;;;;3.35;1.83;;;;;;;11.61;100.00;101027.63;4974510;28;20061;-94
2023/07/26 05:16:33;;;;;;;2.85;1.40;;;;;;;11.66;100.00;101020.31;4997939;28;20117;-95
2023/07/26 05:19:18;;;;;;;3.33;1.63;;;;;;;11.68;100.00;101021.94;4971491;28;20054;-94
2023/07/26 05:22:04;;;;;;;2.80;1.67;;;;;;;11.70;100.00;101027.19;4992060;28;20041;-94
2023/07/26 05:24:50;;;;;;;3.30;1.50;;;;;;;11.71;100.00;101028.06;4991483;28;20580;-93
2023/07/26 05:27:36;;;;;;;2.17;1.50;;;;;;;11.71;100.00;101034.19;5005811;28;20042;-93
2023/07/26 05:30:22;;;;;;;5.97;1.85;;;;;;;11.73;100.00;101028.81;4977070;28;20042;-94
2023/07/26 05:33:08;;;;;;;2.45;1.88;;;;;;;11.76;100.00;101031.34;4992294;28;20668;-94
2023/07/26 05:35:53;;;;;;;2.70;1.60;;;;;;;11.77;100.00;101030.41;5007283;28;20030;-95
2023/07/26 05:38:39;;;;;;;2.85;1.90;;;;;;;11.78;100.00;101024.19;4993154;28;20041;-95
2023/07/26 05:41:28;;;;;;;3.20;1.70;;;;;;;11.80;100.00;101036.44;5008676;28;20018;-95
2023/07/26 05:44:16;;;;;;;3.80;1.90;;;;;;;11.80;100.00;101033.78;4996325;28;20037;-95
2023/07/26 05:47:02;;;;;;;2.85;1.80;;;;;;;11.83;100.00;101038.09;5010738;28;20076;-95
2023/07/26 05:49:47;;;;;;;3.90;2.22;;;;;;;11.78;100.00;101051.53;5016367;28;20502;-94
2023/07/26 05:52:33;;;;;;;3.88;1.80;;;;;;;11.76;100.00;101050.75;5012201;28;20038;-94
2023/07/26 05:55:19;;;;;;;3.58;1.80;;;;;;;11.80;100.00;101049.69;5012911;28;20033;-95
2023/07/26 05:58:04;;;;;;;3.13;1.98;;;;;;;11.80;100.00;101060.31;4994757;28;20050;-92
2023/07/26 06:00:50;;;;;;;5.22;2.40;;;;;;;11.78;100.00;101062.16;4994893;28;20049;-90
2023/07/26 06:03:36;;;;;;;4.60;2.90;;;;;;;11.75;100.00;101059.66;4996199;28;20477;-88
2023/07/26 06:06:22;;;;;;;3.90;2.65;;;;;;;11.71;100.00;101043.97;4981378;28;20133;-87
2023/07/26 06:09:09;;;;;;;7.25;2.78;;;;;;;11.66;100.00;101062.75;4981668;28;20757;-86
2023/07/26 06:11:54;;;;;;;5.10;2.22;;;;;;;11.63;100.00;101098.22;4980270;28;20109;-83
2023/07/26 06:14:41;;;;;;;4.55;1.80;;;;;;;11.51;100.00;101089.00;4982400;28;20053;-80
2023/07/26 06:17:26;;;;;;;3.70;2.00;;;;;;;11.38;100.00;101058.69;4991929;28;20053;-81
2023/07/26 06:20:12;;;;;;;3.58;1.88;;;;;;;11.37;100.00;101070.22;4976244;28;20066;-83
2023/07/26 06:22:58;;;;;;;3.92;1.85;;;;;;;11.40;100.00;101070.09;4993658;28;20038;-84
2023/07/26 06:25:44;;;;;;;2.42;1.60;;;;;;;11.44;100.00;101076.97;4992719;28;20378;-84
2023/07/26 06:28:30;;;;;;;5.95;1.80;;;;;;;11.50;100.00;101079.34;4977733;28;20038;-85
2023/07/26 06:31:16;;;;;;;4.15;1.73;;;;;;;11.48;100.00;101072.38;4993784;28;20044;-86
2023/07/26 06:34:02;;;;;;;2.38;1.60;;;;;;;11.49;100.00;101074.97;4992944;28;20056;-85
2023/07/26 06:36:48;;;;;;;3.25;1.67;;;;;;;11.55;100.00;101085.31;4992085;28;20164;-87
2023/07/26 06:39:34;;;;;;;2.15;1.40;;;;;;;11.58;100.00;101086.09;4993521;28;20045;-86
2023/07/26 06:42:20;;;;;;;2.13;1.50;;;;;;;11.62;100.00;101083.25;4978276;28;20152;-87
2023/07/26 06:45:06;;;;;;;4.05;1.77;;;;;;;11.64;100.00;101086.69;4979715;28;20053;-86
2023/07/26 06:47:53;;;;;;;4.45;1.75;;;;;;;11.73;100.00;101097.78;4992834;28;20046;-86
2023/07/26 06:50:40;;;;;;;4.05;1.60;;;;;;;11.76;100.00;101087.91;4980155;28;20038;-86
2023/07/26 06:53:26;;;;;;;3.40;1.67;;;;;;;11.80;100.00;101096.56;4976552;28;20034;-87
2023/07/26 06:56:12;;;;;;;4.93;1.70;;;;;;;11.84;100.00;101099.94;4978208;28;20041;-87
2023/07/26 06:58:58;;;;;;;2.65;1.50;;;;;;;11.88;100.00;101090.91;4993150;28;20220;-87
2023/07/26 07:01:44;;;;;;;1.92;1.23;;;;;;;11.86;100.00;101098.94;4993289;28;20029;-86
2023/07/26 07:04:30;;;;;;;4.22;1.95;;;;;;;11.82;100.00;101105.31;4972281;28;20175;-86
2023/07/26 07:07:15;;;;;;;5.20;3.40;;;;;;;11.86;100.00;101095.41;4992684;28;20054;-86
2023/07/26 07:10:01;;;;;;;5.43;2.63;;;;;;;11.89;100.00;101087.31;4976522;28;20123;-86
2023/07/26 07:12:47;;;;;;;6.03;2.67;;;;;;;11.90;100.00;101091.69;4992226;28;20076;-86
2023/07/26 07:15:33;;;;;;;5.97;3.28;;;;;;;11.93;100.00;101088.91;4976342;28;20501;-86
2023/07/26 07:18:19;;;;;;;6.40;3.50;;;;;;;11.97;100.00;101093.13;4977256;28;20119;-86
2023/07/26 07:21:04;;;;;;;5.18;3.50;;;;;;;12.00;100.00;101093.00;4992632;28;20248;-85
2023/07/26 07:23:50;;;;;;;4.97;3.38;;;;;;;12.07;100.00;101091.81;4993026;28;20057;-86
2023/07/26 07:26:36;;;;;;;6.82;3.67;;;;;;;12.20;100.00;101085.91;4986675;28;20030;-85
2023/07/26 07:29:22;;;;;;;9.80;3.75;;;;;;;12.35;100.00;101087.81;4977041;28;20151;-85
2023/07/26 07:32:08;;;;;;;4.68;3.53;;;;;;;12.45;100.00;101092.66;4964313;28;20042;-84
2023/07/26 07:34:54;;;;;;;6.72;3.50;;;;;;;12.55;100.00;101093.06;4990287;28;20761;-84
2023/07/26 07:37:39;;;;;;;5.93;3.40;;;;;;;12.55;100.00;101088.63;4976417;28;20868;-84
2023/07/26 07:40:26;;;;;;;6.57;3.58;;;;;;;12.55;100.00;101088.63;4994060;28;20040;-84
2023/07/26 07:43:12;;;;;;;5.60;3.47;;;;;;;12.62;100.00;101082.06;4993950;28;20065;-83
2023/07/26 07:45:57;;;;;;;6.80;3.45;;;;;;;12.67;100.00;101084.47;4993908;28;20053;-84
2023/07/26 07:48:43;;;;;;;6.07;3.67;;;;;;;12.72;100.00;101085.13;4979015;28;20041;-84
2023/07/26 07:51:29;;;;;;;6.30;3.90;;;;;;;12.75;100.00;101081.44;4974818;28;20034;-84
2023/07/26 07:54:15;;;;;;;6.20;3.22;;;;;;;12.75;100.00;101089.41;4948883;28;20493;-84
2023/07/26 07:57:01;;;;;;;5.25;3.63;;;;;;;12.76;100.00;101093.78;4989922;28;20041;-86
2023/07/26 07:59:47;;;;;;;6.40;3.53;;;;;;;12.76;100.00;101096.44;4994466;28;20753;-85
2023/07/26 08:02:33;;;;;;;4.90;3.45;;;;;;;12.93;100.00;101097.38;4989241;28;20744;-85
2023/07/26 08:05:18;;;;;;;5.53;3.38;;;;;;;13.17;100.00;101106.72;4989394;28;20030;-84
2023/07/26 08:08:06;;;;;;;4.93;3.25;;;;;;;13.53;100.00;101098.72;4973951;28;20070;-85
2023/07/26 08:10:51;;;;;;;5.45;3.08;;;;;;;13.81;100.00;101092.75;4990417;28;20034;-84
2023/07/26 08:13:37;;;;;;;4.85;3.03;;;;;;;14.12;100.00;101090.19;4991698;28;20038;-84
2023/07/26 08:16:23;;;;;;;4.95;2.88;;;;;;;14.24;100.00;101089.47;4990818;28;20131;-85
2023/07/26 08:19:11;;;;;;;4.45;2.50;;;;;;;14.21;100.00;101092.31;4991902;28;20042;-82
2023/07/26 08:21:57;;;;;;;4.85;2.25;;;;;;;14.23;100.00;101093.06;4975751;28;20178;-83
2023/07/26 08:24:43;;;;;;;3.72;2.38;;;;;;;14.24;100.00;101100.13;4989700;28;20095;-83
2023/07/26 08:27:29;;;;;;;3.45;2.30;;;;;;;14.25;100.00;101101.84;4992219;28;20036;-82
2023/07/26 08:30:15;;;;;;;3.90;2.17;;;;;;;14.12;100.00;101103.50;4971758;28;20387;-84
2023/07/26 08:33:01;;;;;;;4.43;2.60;;;;;;;14.04;100.00;101095.91;4988801;28;20044;-85
2023/07/26 08:35:47;;;;;;;4.28;2.35;;;;;;;13.88;100.00;101117.22;4991920;28;20037;-83
2023/07/26 08:38:33;;;;;;;4.40;2.15;;;;;;;13.66;100.00;101122.84;4990955;28;20075;-84
2023/07/26 08:41:19;;;;;;;4.40;2.33;;;;;;;13.52;100.00;101131.56;4988672;28;20038;-83
2023/07/26 08:44:07;;;;;;;4.13;2.05;;;;;;;13.45;100.00;101123.00;4976314;28;20034;-83
2023/07/26 08:46:53;;;;;;;4.05;2.25;;;;;;;13.42;100.00;101118.72;4977432;28;20038;-87
2023/07/26 08:49:40;;;;;;;3.05;2.10;;;;;;;13.51;100.00;101111.25;4977062;28;20116;-88
2023/07/26 08:52:26;;;;;;;3.30;2.00;;;;;;;13.82;100.00;101117.53;4978720;28;20378;-79
2023/07/26 08:55:12;;;;;;;4.30;2.33;;;;;;;14.09;100.00;101111.63;4972892;28;20068;-79
2023/07/26 08:58:02;;;;;;;3.45;1.52;;;;;;;14.22;100.00;101111.81;4969582;28;20401;-78
2023/07/26 09:00:47;;;;;;;2.58;1.60;;;;;;;14.14;100.00;101114.91;4991575;28;20109;-80
2023/07/26 09:03:34;;;;;;;2.80;1.40;;;;;;;13.96;100.00;101114.97;4985190;28;21811;-82
2023/07/26 09:06:19;;;;;;;3.47;1.40;;;;;;;13.96;100.00;101114.97;4992171;28;20046;-82
2023/07/26 09:09:06;;;;;;;1.95;1.45;;;;;;;14.24;100.00;101120.56;4993613;28;20329;-82
2023/07/26 09:11:52;;;;;;;3.35;1.33;;;;;;;14.37;100.00;101118.94;4975068;28;20041;-83
2023/07/26 09:14:38;;;;;;;2.67;1.38;;;;;;;14.40;100.00;101115.22;4990389;28;20041;-82
2023/07/26 09:17:43;;;;;;;2.90;1.50;;;;;;;14.41;100.00;101114.28;4992008;28;20034;-81
2023/07/26 09:20:30;;;;;;;3.95;1.73;;;;;;;14.28;100.00;101113.25;4981052;28;20452;-81
2023/07/26 09:23:16;;;;;;;2.22;1.38;;;;;;;14.15;100.00;101105.97;4953134;28;20046;-83
2023/07/26 09:26:02;;;;;;;3.75;1.70;;;;;;;14.12;100.00;101108.81;4965204;28;20077;-81
2023/07/26 09:28:52;;;;;;;2.22;1.67;;;;;;;14.31;100.00;101107.75;4993791;28;20053;-81
2023/07/26 09:31:42;;;;;;;3.22;1.83;;;;;;;14.72;100.00;101100.97;4976996;28;20288;-82
2023/07/26 09:34:31;;;;;;;3.33;1.85;;;;;;;15.13;100.00;101104.78;4995143;28;20033;-81
2023/07/26 09:37:21;;;;;;;3.03;2.00;;;;;;;15.53;100.00;101101.50;4992934;28;20750;-81
2023/07/26 09:40:07;;;;;;;4.72;1.90;;;;;;;15.74;100.00;101099.28;4993554;28;20049;-81
2023/07/26 09:42:53;;;;;;;3.22;2.22;;;;;;;15.78;100.00;101097.28;4982814;28;20030;-81
2023/07/26 09:45:40;;;;;;;2.53;1.60;;;;;;;15.79;100.00;101105.19;4980152;28;20124;-83
2023/07/26 09:48:26;;;;;;;3.17;1.70;;;;;;;15.76;100.00;101100.06;4982147;28;20469;-82
2023/07/26 09:51:12;;;;;;;1.80;1.50;;;;;;;15.61;100.00;101108.09;4993948;28;20057;-82
2023/07/26 09:53:58;;;;;;;1.90;1.35;;;;;;;15.41;100.00;101103.13;4994287;28;20190;-82
2023/07/26 09:56:44;;;;;;;1.95;1.70;;;;;;;15.47;100.00;101094.72;4978041;28;20749;-82
2023/07/26 09:59:30;;;;;;;2.42;1.35;;;;;;;15.78;100.00;101108.81;4978031;28;20058;-81
2023/07/26 10:02:16;;;;;;;2.58;1.75;;;;;;;16.14;100.00;101103.94;4992658;28;20046;-87
2023/07/26 10:05:03;;;;;;;2.40;1.77;;;;;;;16.39;100.00;101108.50;4963413;28;20046;-85
2023/07/26 10:07:50;;;;;;;1.75;1.48;;;;;;;16.59;100.00;101109.00;4978450;28;20104;-86
2023/07/26 10:10:35;;;;;;;3.78;1.83;;;;;;;16.81;100.00;101095.06;4978864;28;20146;-84
2023/07/26 10:13:21;;;;;;;2.25;1.80;;;;;;;16.84;100.00;101096.66;4990886;28;20490;-84
2023/07/26 10:16:08;;;;;;;3.33;1.70;;;;;;;17.07;100.00;101088.91;4967293;28;21820;-86
2023/07/26 10:18:56;;;;;;;3.55;1.90;;;;;;;17.33;100.00;101094.25;4989706;28;20041;-86
2023/07/26 10:21:42;;;;;;;5.57;2.20;;;;;;;17.54;100.00;101080.31;4980569;28;20038;-87
2023/07/26 10:24:30;;;;;;;2.30;1.52;;;;;;;17.69;100.00;101084.56;4974629;28;20042;-87
2023/07/26 10:27:16;;;;;;;2.85;2.00;;;;;;;17.57;100.00;101082.75;4976577;28;20600;-88
2023/07/26 10:30:03;;;;;;;6.03;2.45;;;;;;;17.26;100.00;101093.81;4984095;28;20050;-86
2023/07/26 10:32:51;;;;;;;3.78;1.90;;;;;;;16.83;100.00;101098.47;4994844;28;20473;-89
2023/07/26 10:35:36;;;;;;;2.40;1.60;;;;;;;16.47;100.00;101101.78;4993269;28;20037;-91
2023/07/26 10:38:22;;;;;;;3.28;1.80;;;;;;;16.05;100.00;101105.38;4992538;28;20076;-89
2023/07/26 10:41:27;;;;;;;2.28;1.55;;;;;;;15.78;100.00;101111.50;4984640;28;20117;-88
2023/07/26 10:44:14;;;;;;;2.63;1.92;;;;;;;15.52;100.00;101105.13;4988929;28;20099;-87
2023/07/26 10:47:03;;;;;;;1.98;1.75;;;;;;;15.42;100.00;101103.03;5000730;28;20030;-90
2023/07/26 10:49:49;;;;;;;1.60;1.40;;;;;;;15.42;100.00;101102.19;4981484;28;20072;-89
2023/07/26 10:52:36;;;;;;;2.33;1.60;;;;;;;15.53;100.00;101097.00;4955632;28;20041;-88
2023/07/26 10:55:23;;;;;;;3.88;1.58;;;;;;;15.80;100.00;101104.22;4988088;28;20042;-92
2023/07/26 10:58:12;;;;;;;3.78;1.50;;;;;;;16.01;100.00;101087.81;5005669;28;20096;-92
2023/07/26 11:01:04;;;;;;;3.90;1.90;;;;;;;16.27;100.00;101086.13;4984758;28;20602;-92
2023/07/26 11:03:55;;;;;;;3.37;2.00;;;;;;;16.49;100.00;101083.84;4998155;28;20029;-93
2023/07/26 11:06:56;;;;;;;2.67;1.75;;;;;;;16.73;100.00;101085.84;4996278;28;20334;-93
2023/07/26 11:09:43;;;;;;;4.70;1.92;;;;;;;16.88;100.00;101078.59;4995945;28;20042;-87
2023/07/26 11:12:29;;;;;;;2.90;1.67;;;;;;;17.00;100.00;101072.38;4978399;28;21376;-90
2023/07/26 11:15:25;;;;;;;2.25;1.40;;;;;;;17.10;100.00;101084.19;4979566;28;20041;-93
2023/07/26 11:18:11;;;;;;;5.07;1.90;;;;;;;17.16;100.00;101077.56;4985346;28;20045;-90
2023/07/26 11:20:57;;;;;;;3.05;1.50;;;;;;;17.14;100.00;101089.31;4981764;28;21064;-88
2023/07/26 11:23:43;;;;;;;3.00;1.58;;;;;;;17.01;100.00;101097.31;4984631;28;20041;-91
2023/07/26 11:26:29;;;;;;;4.28;1.67;;;;;;;17.00;100.00;101092.94;4997364;28;20084;-88
2023/07/26 11:29:14;;;;;;;2.65;1.77;;;;;;;16.94;100.00;101099.56;4980935;28;20682;-90
2023/07/26 11:32:01;;;;;;;1.90;1.48;;;;;;;16.90;100.00;101098.91;4993239;28;20091;-85
2023/07/26 11:34:53;;;;;;;1.77;1.42;;;;;;;16.94;100.00;101092.38;4985621;28;20497;-86
2023/07/26 11:37:50;;;;;;;1.88;1.40;;;;;;;16.89;100.00;101107.03;4994762;28;20061;-90
2023/07/26 11:40:42;;;;;;;1.23;1.08;;;;;;;16.95;100.00;101102.13;4983041;28;20493;-86
2023/07/26 11:43:30;;;;;;;3.55;1.33;;;;;;;17.14;100.00;101108.91;4982009;28;20022;-90
2023/07/26 11:46:25;;;;;;;1.70;1.40;;;;;;;17.23;100.00;101104.75;4982882;28;20038;-85
2023/07/26 11:49:18;;;;;;;2.67;1.38;;;;;;;17.36;100.00;101102.06;4996491;28;20068;-88
2023/07/26 11:52:04;;;;;;;;;;;;;;;17.38;100.00;101108.19;4983351;28;20499;-89
2023/07/26 11:54:57;;;;;;;2.55;1.42;;;;;;;17.51;100.00;101114.38;4983158;28;19921;-91
2023/07/26 11:57:42;;;;;;;3.72;1.30;;;;;;;17.59;100.00;101107.63;4995397;28;20033;-90
2023/07/26 12:00:30;;;;;;;1.80;1.20;;;;;;;17.58;100.00;101114.78;4982533;28;20040;-87
2023/07/26 12:03:16;;;;;;;4.65;1.73;;;;;;;17.69;100.00;101107.81;4993697;28;20045;-86
2023/07/26 12:06:02;;;;;;;2.60;1.30;;;;;;;17.89;100.00;101107.25;4990664;28;20034;-85
2023/07/26 12:08:48;;;;;;;2.63;1.38;;;;;;;18.03;100.00;101108.91;4975695;28;20156;-83
2023/07/26 12:11:33;;;;;;;1.70;1.40;;;;;;;18.13;100.00;101119.81;4978433;28;20859;-83
2023/07/26 12:14:22;;;;;;;3.90;1.70;;;;;;;18.21;100.00;101124.63;4982583;28;20987;-87
2023/07/26 12:17:13;;;;;;;4.25;1.60;;;;;;;18.31;100.00;101116.78;4980644;28;20052;-85
2023/07/26 12:20:04;;;;;;;3.95;1.55;;;;;;;18.32;100.00;101115.81;4980141;28;20041;-86
2023/07/26 12:22:58;;;;;;;1.98;1.27;;;;;;;18.31;100.00;101117.59;4995800;28;20568;-87
2023/07/26 12:25:44;;;;;;;1.88;1.25;;;;;;;18.27;100.00;101126.88;4979444;28;20086;-86
2023/07/26 12:28:38;;;;;;;1.55;1.17;;;;;;;18.25;100.00;101128.78;4962388;28;20569;-90
2023/07/26 12:31:28;;;;;;;2.30;1.48;;;;;;;18.35;100.00;101136.16;4991842;28;20465;-86
2023/07/26 12:34:14;;;;;;;4.65;1.30;;;;;;;18.37;100.00;101134.22;4990559;28;20041;-84
2023/07/26 12:37:00;;;;;;;2.45;1.42;;;;;;;18.42;100.00;101134.72;4975814;28;20409;-86
2023/07/26 12:39:48;;;;;;;1.50;1.13;;;;;;;18.57;100.00;101138.94;4977584;28;20128;-88
2023/07/26 12:42:35;;;;;;;1.65;1.45;;;;;;;18.59;100.00;101139.66;4990534;28;20151;-85
2023/07/26 12:45:21;;;;;;;3.25;1.45;;;;;;;18.68;100.00;101139.97;4989383;28;20534;-84